createdAt,value
2019-05-23T00:00:57.582Z,77.78
2019-05-23T00:01:57.555Z,77.45
2019-05-23T00:02:57.510Z,77.65
2019-05-23T00:03:57.425Z,77.36
2019-05-23T00:04:57.456Z,77.45
2019-05-23T00:05:57.369Z,77.36
2019-05-23T00:06:57.377Z,77.55
2019-05-23T00:07:57.372Z,77.45
2019-05-23T00:08:57.391Z,77.55
2019-05-23T00:09:57.285Z,76.88
2019-05-23T00:10:57.249Z,77.26
2019-05-23T00:11:57.167Z,77.26
2019-05-23T00:12:57.247Z,76.98
2019-05-23T00:13:57.316Z,77.26
2019-05-23T00:14:57.069Z,76.98
2019-05-23T00:15:57.038Z,77.17
2019-05-23T00:16:57.003Z,77.74
2019-05-23T00:17:57.043Z,77.17
2019-05-23T00:18:56.975Z,77.84
2019-05-23T00:19:56.958Z,77.55
2019-05-23T00:20:56.946Z,77.17
2019-05-23T00:21:56.940Z,77.45
2019-05-23T00:22:56.831Z,77.45
2019-05-23T00:23:56.780Z,77.74
2019-05-23T00:24:56.825Z,77.74
2019-05-23T00:25:56.747Z,77.65
2019-05-23T00:26:56.706Z,77.65
2019-05-23T00:27:56.702Z,77.55
2019-05-23T00:29:09.463Z,77.17
2019-05-23T00:29:56.650Z,77.65
2019-05-23T00:30:56.614Z,77.84
2019-05-23T00:31:56.592Z,77.13
2019-05-23T00:32:56.510Z,77.42
2019-05-23T00:33:56.546Z,76.94
2019-05-23T00:34:56.514Z,77.23
2019-05-23T00:35:56.480Z,76.75
2019-05-23T00:36:56.442Z,76.65
2019-05-23T00:37:56.370Z,77.03
2019-05-23T00:38:56.362Z,76.18
2019-05-23T00:39:56.325Z,76.75
2019-05-23T00:40:56.233Z,76.65
2019-05-23T00:41:56.285Z,76.75
2019-05-23T00:42:56.172Z,76.75
2019-05-23T00:43:56.286Z,76.65
2019-05-23T00:44:56.197Z,76.94
2019-05-23T00:45:56.175Z,76.75
2019-05-23T00:46:56.118Z,76.75
2019-05-23T00:47:56.014Z,76.65
2019-05-23T00:48:56.037Z,76.27
2019-05-23T00:49:56.023Z,76.75
2019-05-23T00:50:55.918Z,76.84
2019-05-23T00:51:55.938Z,77.23
2019-05-23T00:52:55.873Z,77.03
2019-05-23T00:53:55.872Z,76.75
2019-05-23T00:54:55.809Z,76.94
2019-05-23T00:55:55.814Z,76.75
2019-05-23T00:56:55.711Z,76.75
2019-05-23T00:57:55.676Z,76.56
2019-05-23T00:58:55.732Z,77.13
2019-05-23T00:59:55.686Z,77.03
2019-05-23T01:00:55.642Z,76.75
2019-05-23T01:01:55.654Z,77.51
2019-05-23T01:02:55.542Z,76.84
2019-05-23T01:03:55.545Z,76.84
2019-05-23T01:04:55.460Z,76.75
2019-05-23T01:05:55.483Z,76.84
2019-05-23T01:06:55.444Z,76.94
2019-05-23T01:07:55.397Z,77.23
2019-05-23T01:08:55.388Z,77.23
2019-05-23T01:09:55.327Z,76.94
2019-05-23T01:10:55.322Z,77.23
2019-05-23T01:11:55.287Z,77.23
2019-05-23T01:12:55.192Z,76.65
2019-05-23T01:13:55.205Z,77.42
2019-05-23T01:14:55.162Z,76.75
2019-05-23T01:15:55.118Z,77.13
2019-05-23T01:16:55.100Z,77.09
2019-05-23T01:17:55.114Z,76.90
2019-05-23T01:18:54.994Z,77.47
2019-05-23T01:19:55.020Z,76.90
2019-05-23T01:20:55.011Z,76.90
2019-05-23T01:21:55.043Z,77.09
2019-05-23T01:22:54.865Z,77.19
2019-05-23T01:23:54.909Z,77.19
2019-05-23T01:24:54.812Z,77.00
2019-05-23T01:25:54.843Z,76.81
2019-05-23T01:26:54.746Z,76.81
2019-05-23T01:27:54.750Z,76.52
2019-05-23T01:28:54.748Z,76.71
2019-05-23T01:29:54.626Z,76.81
2019-05-23T01:30:54.709Z,76.42
2019-05-23T01:31:54.639Z,76.71
2019-05-23T01:32:54.624Z,76.81
2019-05-23T01:33:54.538Z,76.81
2019-05-23T01:34:54.496Z,76.71
2019-05-23T01:35:54.500Z,76.62
2019-05-23T01:36:54.416Z,76.81
2019-05-23T01:37:54.457Z,77.09
2019-05-23T01:38:54.389Z,76.71
2019-05-23T01:39:54.423Z,76.04
2019-05-23T01:40:54.265Z,75.85
2019-05-23T01:41:54.288Z,76.14
2019-05-23T01:42:54.250Z,75.66
2019-05-23T01:43:54.210Z,76.33
2019-05-23T01:44:54.136Z,75.95
2019-05-23T01:45:54.130Z,76.23
2019-05-23T01:46:54.069Z,76.04
2019-05-23T01:47:54.107Z,76.14
2019-05-23T01:48:54.077Z,76.14
2019-05-23T01:49:54.035Z,76.33
2019-05-23T01:50:53.951Z,76.04
2019-05-23T01:51:53.917Z,76.04
2019-05-23T01:52:53.867Z,76.14
2019-05-23T01:53:53.891Z,75.95
2019-05-23T01:54:53.807Z,75.66
2019-05-23T01:55:53.872Z,75.66
2019-05-23T01:56:53.787Z,75.76
2019-05-23T01:57:53.754Z,75.28
2019-05-23T01:58:53.727Z,75.18
2019-05-23T02:00:08.323Z,75.18
2019-05-23T02:00:53.614Z,75.18
2019-05-23T02:01:53.631Z,74.99
2019-05-23T02:02:53.608Z,74.80
2019-05-23T02:03:53.597Z,74.71
2019-05-23T02:04:53.536Z,74.57
2019-05-23T02:05:53.491Z,74.71
2019-05-23T02:06:53.416Z,74.57
2019-05-23T02:07:53.377Z,74.67
2019-05-23T02:08:53.379Z,74.77
2019-05-23T02:09:53.327Z,74.77
2019-05-23T02:10:53.320Z,74.86
2019-05-23T02:11:53.241Z,74.48
2019-05-23T02:12:53.273Z,74.10
2019-05-23T02:13:53.229Z,74.38
2019-05-23T02:14:53.226Z,73.91
2019-05-23T02:15:53.117Z,73.72
2019-05-23T02:16:53.073Z,73.81
2019-05-23T02:17:53.077Z,73.91
2019-05-23T02:18:53.060Z,74.29
2019-05-23T02:19:52.986Z,74.38
2019-05-23T02:20:52.957Z,74.29
2019-05-23T02:21:52.939Z,74.57
2019-05-23T02:22:52.961Z,74.10
2019-05-23T02:23:52.839Z,74.19
2019-05-23T02:24:52.863Z,74.10
2019-05-23T02:25:52.789Z,74.48
2019-05-23T02:26:52.753Z,74.57
2019-05-23T02:27:52.773Z,73.52
2019-05-23T02:28:52.691Z,73.72
2019-05-23T02:29:52.708Z,73.81
2019-05-23T02:30:52.613Z,73.72
2019-05-23T02:31:52.632Z,73.91
2019-05-23T02:32:52.593Z,74.19
2019-05-23T02:33:52.539Z,74.01
2019-05-23T02:34:52.509Z,73.91
2019-05-23T02:35:52.475Z,74.10
2019-05-23T02:36:52.508Z,74.19
2019-05-23T02:37:52.468Z,74.38
2019-05-23T02:38:52.417Z,74.35
2019-05-23T02:39:52.427Z,74.19
2019-05-23T02:40:52.315Z,73.72
2019-05-23T02:41:52.289Z,74.10
2019-05-23T02:42:52.298Z,74.10
2019-05-23T02:43:52.245Z,74.19
2019-05-23T02:44:52.138Z,74.10
2019-05-23T02:45:52.149Z,73.68
2019-05-23T02:46:52.072Z,73.58
2019-05-23T02:47:52.093Z,73.77
2019-05-23T02:48:52.068Z,73.49
2019-05-23T02:49:52.050Z,73.11
2019-05-23T02:50:51.980Z,73.21
2019-05-23T02:51:51.951Z,73.11
2019-05-23T02:52:51.911Z,72.72
2019-05-23T02:53:51.843Z,72.92
2019-05-23T02:54:51.814Z,72.82
2019-05-23T02:55:51.855Z,72.82
2019-05-23T02:56:51.801Z,72.92
2019-05-23T02:57:51.851Z,72.82
2019-05-23T02:58:51.710Z,72.63
2019-05-23T02:59:51.683Z,72.63
2019-05-23T03:00:54.821Z,72.63
2019-05-23T03:01:51.578Z,72.63
2019-05-23T03:02:51.633Z,72.25
2019-05-23T03:03:51.543Z,72.25
2019-05-23T03:04:51.523Z,72.25
2019-05-23T03:05:51.481Z,72.53
2019-05-23T03:06:51.445Z,72.44
2019-05-23T03:07:51.419Z,72.06
2019-05-23T03:08:51.402Z,72.34
2019-05-23T03:09:51.347Z,72.06
2019-05-23T03:10:51.320Z,72.25
2019-05-23T03:11:51.284Z,71.96
2019-05-23T03:12:51.247Z,71.77
2019-05-23T03:13:51.177Z,72.06
2019-05-23T03:14:51.217Z,72.34
2019-05-23T03:15:51.137Z,72.06
2019-05-23T03:16:51.076Z,71.77
2019-05-23T03:17:51.090Z,71.87
2019-05-23T03:18:51.048Z,71.68
2019-05-23T03:19:51.011Z,71.77
2019-05-23T03:20:50.945Z,71.73
2019-05-23T03:21:50.900Z,71.73
2019-05-23T03:22:50.888Z,71.48
2019-05-23T03:23:50.841Z,71.36
2019-05-23T03:24:50.811Z,71.45
2019-05-23T03:25:50.771Z,71.64
2019-05-23T03:26:50.787Z,71.64
2019-05-23T03:27:50.707Z,71.87
2019-05-23T03:28:50.739Z,71.64
2019-05-23T03:29:50.641Z,71.45
2019-05-23T03:30:50.619Z,71.73
2019-05-23T03:31:50.601Z,71.73
2019-05-23T03:32:50.586Z,71.55
2019-05-23T03:33:50.543Z,71.64
2019-05-23T03:34:50.490Z,71.64
2019-05-23T03:35:50.509Z,71.73
2019-05-23T03:36:50.390Z,71.73
2019-05-23T03:37:50.387Z,71.17
2019-05-23T03:38:50.373Z,70.69
2019-05-23T03:39:50.356Z,71.26
2019-05-23T03:40:50.266Z,70.59
2019-05-23T03:41:50.213Z,70.88
2019-05-23T03:42:50.254Z,70.88
2019-05-23T03:43:50.154Z,70.69
2019-05-23T03:44:50.153Z,70.59
2019-05-23T03:45:50.154Z,70.12
2019-05-23T03:46:50.063Z,70.40
2019-05-23T03:47:50.083Z,70.69
2019-05-23T03:48:50.051Z,70.12
2019-05-23T03:49:50.030Z,70.31
2019-05-23T03:50:49.976Z,70.40
2019-05-23T03:51:49.954Z,69.74
2019-05-23T03:52:49.957Z,69.74
2019-05-23T03:53:49.909Z,69.93
2019-05-23T03:54:49.892Z,69.64
2019-05-23T03:55:49.819Z,69.35
2019-05-23T03:56:49.712Z,69.45
2019-05-23T03:57:49.807Z,69.45
2019-05-23T03:58:49.757Z,69.26
2019-05-23T03:59:49.606Z,69.07
2019-05-23T04:00:49.622Z,69.26
2019-05-23T04:01:49.668Z,68.98
2019-05-23T04:02:49.671Z,68.78
2019-05-23T04:03:49.582Z,68.59
2019-05-23T04:04:49.544Z,68.88
2019-05-23T04:05:49.428Z,68.69
2019-05-23T04:06:49.570Z,68.59
2019-05-23T04:07:49.428Z,69.07
2019-05-23T04:08:49.359Z,69.07
2019-05-23T04:09:49.330Z,68.40
2019-05-23T04:10:52.045Z,68.30
2019-05-23T04:11:49.212Z,68.78
2019-05-23T04:12:49.260Z,68.50
2019-05-23T04:13:49.282Z,68.40
2019-05-23T04:14:49.173Z,68.59
2019-05-23T04:15:49.097Z,68.50
2019-05-23T04:16:49.150Z,68.30
2019-05-23T04:17:49.149Z,68.30
2019-05-23T04:18:49.026Z,67.93
2019-05-23T04:19:48.932Z,68.21
2019-05-23T04:20:48.916Z,67.93
2019-05-23T04:21:48.931Z,67.93
2019-05-23T04:22:48.922Z,67.45
2019-05-23T04:23:48.921Z,67.93
2019-05-23T04:24:48.960Z,67.64
2019-05-23T04:25:48.820Z,67.93
2019-05-23T04:26:48.793Z,67.93
2019-05-23T04:27:48.736Z,67.64
2019-05-23T04:28:48.736Z,67.74
2019-05-23T04:29:48.660Z,67.83
2019-05-23T04:30:48.660Z,67.74
2019-05-23T04:32:06.316Z,67.55
2019-05-23T04:32:48.556Z,67.55
2019-05-23T04:33:48.499Z,67.26
2019-05-23T04:34:48.493Z,67.45
2019-05-23T04:35:48.383Z,67.55
2019-05-23T04:36:48.397Z,67.35
2019-05-23T04:37:48.340Z,67.16
2019-05-23T04:38:48.289Z,67.55
2019-05-23T04:39:48.388Z,67.64
2019-05-23T04:40:48.321Z,66.88
2019-05-23T04:41:48.282Z,66.78
2019-05-23T04:42:48.172Z,66.78
2019-05-23T04:43:48.136Z,66.69
2019-05-23T04:44:48.226Z,67.07
2019-05-23T04:45:48.162Z,66.88
2019-05-23T04:46:48.114Z,66.88
2019-05-23T04:47:48.072Z,67.26
2019-05-23T04:48:48.111Z,66.78
2019-05-23T04:49:48.061Z,66.78
2019-05-23T04:50:48.855Z,66.88
2019-05-23T04:51:47.897Z,67.16
2019-05-23T04:52:48.015Z,67.07
2019-05-23T04:53:47.875Z,67.07
2019-05-23T04:54:47.881Z,67.07
2019-05-23T04:55:47.853Z,66.59
2019-05-23T04:56:47.733Z,65.77
2019-05-23T04:57:47.713Z,66.50
2019-05-23T04:58:47.743Z,66.31
2019-05-23T04:59:47.656Z,66.40
2019-05-23T05:00:47.591Z,66.82
2019-05-23T05:01:47.531Z,66.34
2019-05-23T05:02:47.557Z,66.15
2019-05-23T05:03:47.511Z,66.63
2019-05-23T05:04:47.500Z,66.34
2019-05-23T05:05:47.382Z,66.72
2019-05-23T05:06:47.504Z,66.82
2019-05-23T05:07:47.297Z,66.72
2019-05-23T05:08:47.273Z,66.63
2019-05-23T05:09:47.298Z,66.15
2019-05-23T05:10:47.298Z,66.44
2019-05-23T05:11:47.293Z,66.63
2019-05-23T05:12:47.188Z,66.24
2019-05-23T05:13:47.216Z,66.34
2019-05-23T05:14:47.087Z,66.44
2019-05-23T05:15:47.024Z,66.05
2019-05-23T05:16:47.041Z,66.44
2019-05-23T05:17:47.009Z,66.24
2019-05-23T05:18:46.927Z,66.44
2019-05-23T05:19:47.013Z,66.44
2019-05-23T05:20:46.862Z,66.05
2019-05-23T05:21:46.872Z,66.44
2019-05-23T05:22:46.903Z,66.05
2019-05-23T05:23:46.923Z,66.24
2019-05-23T05:24:46.794Z,66.63
2019-05-23T05:25:46.744Z,66.34
2019-05-23T05:26:46.712Z,66.63
2019-05-23T05:27:46.699Z,66.53
2019-05-23T05:28:46.579Z,66.63
2019-05-23T05:29:46.671Z,66.72
2019-05-23T05:30:46.626Z,66.72
2019-05-23T05:31:46.698Z,66.91
2019-05-23T05:32:46.510Z,66.85
2019-05-23T05:33:46.477Z,66.18
2019-05-23T05:34:46.399Z,66.18
2019-05-23T05:35:46.359Z,66.66
2019-05-23T05:36:46.377Z,66.66
2019-05-23T05:37:46.469Z,67.23
2019-05-23T05:38:46.290Z,65.80
2019-05-23T05:39:46.269Z,66.09
2019-05-23T05:40:46.285Z,66.47
2019-05-23T05:41:46.231Z,66.47
2019-05-23T05:42:46.258Z,66.66
2019-05-23T05:43:46.186Z,66.18
2019-05-23T05:44:46.144Z,66.18
2019-05-23T05:45:46.090Z,66.66
2019-05-23T05:46:46.061Z,66.18
2019-05-23T05:47:46.036Z,66.18
2019-05-23T05:48:45.986Z,66.28
2019-05-23T05:49:45.919Z,66.56
2019-05-23T05:50:45.938Z,66.56
2019-05-23T05:51:45.815Z,66.18
2019-05-23T05:52:45.860Z,66.38
2019-05-23T05:53:45.850Z,65.74
2019-05-23T05:54:45.792Z,65.93
2019-05-23T05:55:45.751Z,66.02
2019-05-23T05:56:45.735Z,66.60
2019-05-23T05:57:45.666Z,66.88
2019-05-23T05:58:45.677Z,66.78
2019-05-23T05:59:45.546Z,66.69
2019-05-23T06:00:45.592Z,67.17
2019-05-23T06:01:45.551Z,67.07
2019-05-23T06:03:02.693Z,66.88
2019-05-23T06:03:45.529Z,67.83
2019-05-23T06:04:45.461Z,67.36
2019-05-23T06:05:45.426Z,67.46
2019-05-23T06:06:45.424Z,67.55
2019-05-23T06:07:45.364Z,67.27
2019-05-23T06:08:45.431Z,67.36
2019-05-23T06:09:45.279Z,67.46
2019-05-23T06:10:45.245Z,66.69
2019-05-23T06:11:45.189Z,67.11
2019-05-23T06:12:45.198Z,66.72
2019-05-23T06:13:45.173Z,66.25
2019-05-23T06:14:46.641Z,66.53
2019-05-23T06:15:45.066Z,66.25
2019-05-23T06:16:45.120Z,66.53
2019-05-23T06:17:44.986Z,65.87
2019-05-23T06:18:44.942Z,66.06
2019-05-23T06:19:44.991Z,65.77
2019-05-23T06:20:45.010Z,65.67
2019-05-23T06:21:44.899Z,66.35
2019-05-23T06:22:44.873Z,65.30
2019-05-23T06:23:44.808Z,66.25
2019-05-23T06:24:50.190Z,66.06
2019-05-23T06:25:44.683Z,66.15
2019-05-23T06:26:44.766Z,66.28
2019-05-23T06:27:44.707Z,66.19
2019-05-23T06:28:44.701Z,67.71
2019-05-23T06:29:44.625Z,66.56
2019-05-23T06:30:44.562Z,66.76
2019-05-23T06:31:44.586Z,66.09
2019-05-23T06:32:44.482Z,67.43
2019-05-23T06:33:44.502Z,66.38
2019-05-23T06:34:44.466Z,65.42
2019-05-23T06:35:44.472Z,65.52
2019-05-23T06:36:44.348Z,65.23
2019-05-23T06:37:44.386Z,65.61
2019-05-23T06:38:44.345Z,65.52
2019-05-23T06:39:44.367Z,65.61
2019-05-23T06:40:44.293Z,65.55
2019-05-23T06:41:44.303Z,65.71
2019-05-23T06:42:44.355Z,64.88
2019-05-23T06:43:44.274Z,65.36
2019-05-23T06:44:44.168Z,65.26
2019-05-23T06:45:44.149Z,65.07
2019-05-23T06:46:44.047Z,65.36
2019-05-23T06:47:44.158Z,64.88
2019-05-23T06:48:45.787Z,65.55
2019-05-23T06:49:43.984Z,65.74
2019-05-23T06:50:43.943Z,65.55
2019-05-23T06:51:43.942Z,64.91
2019-05-23T06:52:43.833Z,65.11
2019-05-23T06:53:43.910Z,65.39
2019-05-23T06:54:43.923Z,65.20
2019-05-23T06:55:43.805Z,64.91
2019-05-23T06:56:43.855Z,64.62
2019-05-23T06:57:43.734Z,65.11
2019-05-23T06:58:43.689Z,65.01
2019-05-23T06:59:43.774Z,65.77
2019-05-23T07:00:43.745Z,66.35
2019-05-23T07:01:43.546Z,67.21
2019-05-23T07:02:43.631Z,66.92
2019-05-23T07:03:44.077Z,69.79
2019-05-23T07:04:43.519Z,68.35
2019-05-23T07:05:43.483Z,68.07
2019-05-23T07:06:43.396Z,68.55
2019-05-23T07:07:43.407Z,67.34
2019-05-23T07:08:43.338Z,70.87
2019-05-23T07:09:43.313Z,69.25
2019-05-23T07:10:44.017Z,68.77
2019-05-23T07:11:43.303Z,68.10
2019-05-23T07:12:43.244Z,69.15
2019-05-23T07:13:43.285Z,69.25
2019-05-23T07:14:43.265Z,70.21
2019-05-23T07:15:43.203Z,69.92
2019-05-23T07:16:43.160Z,69.15
2019-05-23T07:17:43.148Z,68.29
2019-05-23T07:18:43.055Z,67.37
2019-05-23T07:19:43.067Z,68.04
2019-05-23T07:20:42.973Z,67.94
2019-05-23T07:21:43.087Z,67.85
2019-05-23T07:22:42.910Z,67.85
2019-05-23T07:23:43.027Z,67.47
2019-05-23T07:24:57.005Z,69.67
2019-05-23T07:25:42.819Z,69.48
2019-05-23T07:26:42.780Z,68.23
2019-05-23T07:27:42.804Z,68.46
2019-05-23T07:28:42.671Z,68.65
2019-05-23T07:29:42.789Z,69.70
2019-05-23T07:30:42.726Z,68.55
2019-05-23T07:31:42.738Z,68.65
2019-05-23T07:32:42.665Z,70.37
2019-05-23T07:34:00.520Z,70.56
2019-05-23T07:34:42.571Z,69.23
2019-05-23T07:35:42.601Z,71.14
2019-05-23T07:36:42.571Z,70.09
2019-05-23T07:37:42.559Z,69.42
2019-05-23T07:38:42.550Z,70.95
2019-05-23T07:39:42.433Z,70.12
2019-05-23T07:40:42.404Z,69.64
2019-05-23T07:41:42.401Z,70.31
2019-05-23T07:42:42.412Z,71.66
2019-05-23T07:43:42.310Z,72.03
2019-05-23T07:44:48.421Z,70.98
2019-05-23T07:45:42.252Z,70.79
2019-05-23T07:46:42.271Z,71.56
2019-05-23T07:47:42.087Z,70.89
2019-05-23T07:48:42.387Z,70.98
2019-05-23T07:49:42.091Z,72.71
2019-05-23T07:50:42.071Z,71.56
2019-05-23T07:51:42.088Z,70.83
2019-05-23T07:52:42.016Z,71.88
2019-05-23T07:53:44.007Z,71.21
2019-05-23T07:54:41.887Z,70.92
2019-05-23T07:55:41.899Z,71.88
2019-05-23T07:56:41.911Z,72.07
2019-05-23T07:57:41.901Z,72.17
2019-05-23T07:58:41.817Z,72.17
2019-05-23T07:59:41.960Z,71.21
2019-05-23T08:00:41.792Z,74.02
2019-05-23T08:01:41.732Z,71.88
2019-05-23T08:02:41.780Z,72.11
2019-05-23T08:03:41.793Z,71.92
2019-05-23T08:04:41.747Z,73.35
2019-05-23T08:05:41.663Z,74.69
2019-05-23T08:06:41.568Z,72.97
2019-05-23T08:07:41.856Z,72.78
2019-05-23T08:08:41.563Z,72.59
2019-05-23T08:09:41.791Z,74.60
2019-05-23T08:10:41.486Z,73.93
2019-05-23T08:11:41.548Z,72.88
2019-05-23T08:12:41.462Z,72.33
2019-05-23T08:13:41.373Z,73.00
2019-05-23T08:14:41.439Z,72.33
2019-05-23T08:15:41.391Z,71.86
2019-05-23T08:16:41.431Z,72.63
2019-05-23T08:17:41.277Z,73.68
2019-05-23T08:18:41.395Z,73.87
2019-05-23T08:19:49.851Z,74.35
2019-05-23T08:20:41.175Z,74.83
2019-05-23T08:21:41.168Z,74.29
2019-05-23T08:22:41.117Z,74.68
2019-05-23T08:23:41.894Z,76.79
2019-05-23T08:24:41.049Z,76.21
2019-05-23T08:25:40.999Z,75.92
2019-05-23T08:26:41.114Z,75.06
2019-05-23T08:27:40.972Z,74.77
2019-05-23T08:28:56.715Z,75.82
2019-05-23T08:29:40.997Z,76.31
2019-05-23T08:30:40.963Z,77.08
2019-05-23T08:31:40.870Z,79.13
2019-05-23T08:32:41.383Z,78.55
2019-05-23T08:33:40.858Z,80.09
2019-05-23T08:34:42.796Z,79.61
2019-05-23T08:35:40.679Z,79.03
2019-05-23T08:36:40.651Z,79.71
2019-05-23T08:37:40.604Z,80.28
2019-05-23T08:38:40.640Z,79.22
2019-05-23T08:39:40.608Z,78.88
2019-05-23T08:40:40.533Z,78.59
2019-05-23T08:41:40.541Z,78.88
2019-05-23T08:42:40.451Z,77.83
2019-05-23T08:43:40.523Z,74.27
2019-05-23T08:44:40.493Z,75.71
2019-05-23T08:45:40.519Z,74.85
2019-05-23T08:46:40.513Z,75.52
2019-05-23T08:47:40.379Z,75.32
2019-05-23T08:48:40.404Z,75.32
2019-05-23T08:49:40.265Z,77.06
2019-05-23T08:50:40.324Z,74.46
2019-05-23T08:51:40.300Z,72.34
2019-05-23T08:52:40.279Z,71.29
2019-05-23T08:53:40.241Z,73.60
2019-05-23T08:54:40.165Z,73.63
2019-05-23T08:55:40.261Z,75.37
2019-05-23T08:56:40.239Z,74.79
2019-05-23T08:57:40.056Z,73.06
2019-05-23T08:58:40.006Z,72.86
2019-05-23T08:59:40.000Z,70.65
2019-05-23T09:00:40.041Z,70.75
2019-05-23T09:01:40.016Z,72.19
2019-05-23T09:02:39.970Z,72.67
2019-05-23T09:03:40.011Z,74.92
2019-05-23T09:04:40.075Z,72.42
2019-05-23T09:05:39.902Z,72.71
2019-05-23T09:06:39.849Z,73.77
2019-05-23T09:07:39.765Z,70.78
2019-05-23T09:08:39.866Z,68.38
2019-05-23T09:09:39.697Z,68.86
2019-05-23T09:10:39.773Z,68.76
2019-05-23T09:11:39.681Z,66.55
2019-05-23T09:12:39.645Z,66.39
2019-05-23T09:13:39.677Z,66.20
2019-05-23T09:14:39.633Z,67.35
2019-05-23T09:15:39.571Z,68.13
2019-05-23T09:16:39.588Z,65.72
2019-05-23T09:17:52.265Z,64.28
2019-05-23T09:18:39.515Z,64.95
2019-05-23T09:19:39.560Z,64.76
2019-05-23T09:20:39.442Z,64.66
2019-05-23T09:21:39.373Z,63.54
2019-05-23T09:22:39.500Z,64.18
2019-05-23T09:23:39.430Z,63.22
2019-05-23T09:24:39.366Z,63.99
2019-05-23T09:25:39.350Z,63.22
2019-05-23T09:26:39.418Z,64.37
2019-05-23T09:27:39.297Z,62.74
2019-05-23T09:28:39.228Z,62.77
2019-05-23T09:29:39.267Z,62.87
2019-05-23T09:30:39.227Z,62.09
2019-05-23T09:31:39.327Z,60.94
2019-05-23T09:32:39.239Z,60.75
2019-05-23T09:33:39.094Z,60.94
2019-05-23T09:34:39.082Z,60.65
2019-05-23T09:35:39.218Z,61.04
2019-05-23T09:36:39.041Z,61.52
2019-05-23T09:37:38.985Z,61.90
2019-05-23T09:38:39.113Z,62.38
2019-05-23T09:39:39.028Z,63.82
2019-05-23T09:40:38.965Z,63.25
2019-05-23T09:41:38.970Z,60.36
2019-05-23T09:42:38.834Z,59.69
2019-05-23T09:43:38.833Z,62.09
2019-05-23T09:44:38.910Z,62.09
2019-05-23T09:45:46.983Z,61.74
2019-05-23T09:47:43.175Z,62.60
2019-05-23T09:48:43.099Z,62.60
2019-05-23T09:49:53.558Z,63.28
2019-05-23T09:50:43.065Z,60.23
2019-05-23T09:51:43.012Z,61.68
2019-05-23T09:52:42.949Z,59.55
2019-05-23T09:53:47.277Z,58.27
2019-05-23T09:54:42.917Z,58.08
2019-05-23T09:55:42.902Z,57.24
2019-05-23T09:56:42.876Z,57.82
2019-05-23T09:57:42.815Z,58.11
2019-05-23T09:58:42.810Z,58.40
2019-05-23T09:59:42.784Z,57.65
2019-05-23T10:00:42.755Z,59.87
2019-05-23T10:01:42.719Z,58.75
2019-05-23T10:02:42.717Z,62.70
2019-05-23T10:03:42.661Z,59.71
2019-05-23T10:04:42.635Z,59.35
2019-05-23T10:05:44.209Z,55.98
2019-05-23T10:06:46.034Z,56.46
2019-05-23T10:07:42.589Z,59.48
2019-05-23T10:08:42.536Z,54.65
2019-05-23T10:09:42.520Z,53.91
2019-05-23T10:10:42.505Z,53.61
2019-05-23T10:11:42.447Z,53.93
2019-05-23T10:12:42.460Z,53.93
2019-05-23T10:13:42.411Z,56.15
2019-05-23T10:14:42.374Z,56.83
2019-05-23T10:15:42.363Z,53.57
2019-05-23T10:16:42.319Z,52.22
2019-05-23T10:17:42.309Z,55.02
2019-05-23T10:18:42.285Z,56.09
2019-05-23T10:19:42.269Z,54.17
2019-05-23T10:20:42.229Z,54.57
2019-05-23T10:21:42.219Z,52.44
2019-05-23T10:22:42.219Z,52.24
2019-05-23T10:23:42.154Z,50.89
2019-05-23T10:24:42.152Z,49.34
2019-05-23T10:25:42.121Z,49.34
2019-05-23T10:26:42.072Z,50.21
2019-05-23T10:27:42.085Z,48.74
2019-05-23T10:28:42.069Z,49.70
2019-05-23T10:29:42.007Z,50.35
2019-05-23T10:30:41.977Z,53.19
2019-05-23T10:31:41.960Z,50.55
2019-05-23T10:32:41.945Z,52.61
2019-05-23T10:33:41.911Z,51.25
2019-05-23T10:34:41.887Z,50.50
2019-05-23T10:35:56.912Z,51.28
2019-05-23T10:36:41.831Z,51.37
2019-05-23T10:37:41.802Z,49.70
2019-05-23T10:38:41.833Z,49.80
2019-05-23T10:39:41.781Z,49.77
2019-05-23T10:40:41.773Z,50.74
2019-05-23T10:41:41.778Z,49.58
2019-05-23T10:42:41.775Z,51.32
2019-05-23T10:43:41.737Z,50.84
2019-05-23T10:44:44.886Z,50.43
2019-05-23T10:45:41.672Z,50.98
2019-05-23T10:46:41.598Z,50.40
2019-05-23T10:47:41.581Z,51.20
2019-05-23T10:48:41.588Z,55.35
2019-05-23T10:49:41.552Z,54.32
2019-05-23T10:50:44.565Z,50.45
2019-05-23T10:51:41.511Z,49.58
2019-05-23T10:52:41.525Z,48.83
2019-05-23T10:53:41.448Z,48.54
2019-05-23T10:54:41.469Z,51.86
2019-05-23T10:55:41.391Z,49.92
2019-05-23T10:56:41.402Z,52.63
2019-05-23T10:57:41.374Z,49.82
2019-05-23T10:58:41.288Z,50.40
2019-05-23T10:59:41.346Z,48.76
2019-05-23T11:00:41.310Z,46.73
2019-05-23T11:01:41.273Z,48.64
2019-05-23T11:02:41.260Z,49.51
2019-05-23T11:03:41.203Z,48.61
2019-05-23T11:04:41.168Z,48.52
2019-05-23T11:05:41.158Z,49.41
2019-05-23T11:06:41.144Z,48.74
2019-05-23T11:07:41.203Z,47.38
2019-05-23T11:08:41.054Z,47.79
2019-05-23T11:09:41.038Z,48.76
2019-05-23T11:10:41.004Z,48.66
2019-05-23T11:11:41.031Z,48.76
2019-05-23T11:12:41.024Z,47.79
2019-05-23T11:13:40.941Z,47.50
2019-05-23T11:14:40.918Z,47.02
2019-05-23T11:15:40.882Z,47.41
2019-05-23T11:16:40.893Z,47.89
2019-05-23T11:17:40.880Z,47.31
2019-05-23T11:18:40.870Z,46.53
2019-05-23T11:19:40.823Z,46.53
2019-05-23T11:20:40.765Z,47.50
2019-05-23T11:21:40.737Z,48.47
2019-05-23T11:22:40.727Z,46.70
2019-05-23T11:23:40.712Z,48.66
2019-05-23T11:24:40.680Z,47.31
2019-05-23T11:25:40.668Z,48.59
2019-05-23T11:26:40.609Z,49.65
2019-05-23T11:27:40.671Z,47.52
2019-05-23T11:28:40.573Z,46.75
2019-05-23T11:29:40.566Z,47.33
2019-05-23T11:30:40.573Z,47.16
2019-05-23T11:31:40.566Z,47.84
2019-05-23T11:32:40.600Z,49.68
2019-05-23T11:33:40.505Z,49.51
2019-05-23T11:34:40.454Z,47.06
2019-05-23T11:35:40.413Z,46.09
2019-05-23T11:36:40.390Z,45.03
2019-05-23T11:37:41.998Z,47.06
2019-05-23T11:38:40.426Z,46.70
2019-05-23T11:39:49.991Z,46.29
2019-05-23T11:40:40.311Z,47.77
2019-05-23T11:41:40.352Z,48.06
2019-05-23T11:42:40.265Z,50.02
2019-05-23T11:43:40.215Z,47.79
2019-05-23T11:44:40.225Z,48.95
2019-05-23T11:45:45.854Z,49.66
2019-05-23T11:46:40.198Z,50.62
2019-05-23T11:47:40.180Z,50.53
2019-05-23T11:48:40.087Z,46.55
2019-05-23T11:49:40.237Z,44.68
2019-05-23T11:50:40.070Z,45.56
2019-05-23T11:51:40.078Z,45.17
2019-05-23T11:52:40.025Z,45.07
2019-05-23T11:53:39.999Z,44.90
2019-05-23T11:54:40.021Z,43.93
2019-05-23T11:55:39.946Z,42.72
2019-05-23T11:56:39.950Z,44.59
2019-05-23T11:57:39.949Z,44.10
2019-05-23T11:58:39.880Z,44.10
2019-05-23T11:59:39.851Z,42.46
2019-05-23T12:00:39.908Z,43.13
2019-05-23T12:01:39.785Z,44.23
2019-05-23T12:02:39.775Z,44.03
2019-05-23T12:03:39.840Z,43.84
2019-05-23T12:04:39.753Z,45.21
2019-05-23T12:05:39.712Z,43.27
2019-05-23T12:06:54.443Z,43.35
2019-05-23T12:07:39.685Z,43.06
2019-05-23T12:08:39.668Z,43.16
2019-05-23T12:09:39.613Z,44.15
2019-05-23T12:10:39.666Z,42.69
2019-05-23T12:11:42.525Z,43.08
2019-05-23T12:12:39.572Z,42.11
2019-05-23T12:13:39.557Z,42.11
2019-05-23T12:14:39.510Z,43.16
2019-05-23T12:15:39.501Z,41.92
2019-05-23T12:16:39.471Z,42.89
2019-05-23T12:17:39.448Z,42.60
2019-05-23T12:18:39.409Z,43.20
2019-05-23T12:19:39.427Z,43.08
2019-05-23T12:20:39.357Z,45.92
2019-05-23T12:21:39.381Z,44.85
2019-05-23T12:22:39.510Z,42.29
2019-05-23T12:23:39.302Z,42.57
2019-05-23T12:24:39.287Z,42.48
2019-05-23T12:25:39.282Z,44.44
2019-05-23T12:26:39.266Z,43.76
2019-05-23T12:27:39.348Z,45.21
2019-05-23T12:28:39.208Z,43.78
2019-05-23T12:29:39.205Z,43.98
2019-05-23T12:30:39.193Z,42.61
2019-05-23T12:31:39.150Z,42.79
2019-05-23T12:32:39.089Z,41.78
2019-05-23T12:33:39.115Z,42.86
2019-05-23T12:34:39.083Z,40.54
2019-05-23T12:35:39.023Z,41.78
2019-05-23T12:36:39.016Z,42.94
2019-05-23T12:37:39.067Z,41.20
2019-05-23T12:38:38.957Z,41.97
2019-05-23T12:39:38.938Z,43.06
2019-05-23T12:40:38.899Z,41.31
2019-05-23T12:41:38.972Z,40.71
2019-05-23T12:42:38.896Z,40.52
2019-05-23T12:43:38.881Z,41.51
2019-05-23T12:44:38.856Z,43.08
2019-05-23T12:45:38.830Z,42.81
2019-05-23T12:46:38.812Z,42.81
2019-05-23T12:47:38.760Z,40.99
2019-05-23T12:48:38.738Z,40.01
2019-05-23T12:49:38.713Z,39.12
2019-05-23T12:50:38.710Z,39.20
2019-05-23T12:51:38.751Z,39.01
2019-05-23T12:52:38.663Z,39.70
2019-05-23T12:53:38.638Z,41.94